Caldwell, Texas
Current Conditions -  °F | °C
As of 2:15 PM on Saturday 22 Nov 2014 (Local Time) from KRWV Reporting Station
Thunderstorm Thunderstorm  
Wind Chill: 63°   Ceiling: 100
Heat Index: 63°   Visibility: 0.5mi
Dew Point: 63°   Wind: 6mph
Humidity: 100%   Direction: 30°NNE
Pressure: 29.9"   Gusts: NA
Location:  30.53°N, 96.69°W
Report Text: KRWV 222015Z AUTO 03005KT 1/2SM VCTS +RA OVC001 17/17 A2990 RMK AO2 LTG DSNT ALQDS P0038
Loading
Personal Weather Stations






























Interactive Weather Map New forecast layout! Learn more

10-Day Weather Forecast

Advertisements
Track Severe Weather on mobile